createdAt,value
2018-10-17T00:00:49.422Z,20.83
2018-10-17T00:05:52.967Z,19.93
2018-10-17T00:10:56.585Z,20.90
2018-10-17T00:16:00.114Z,20.87
2018-10-17T00:21:03.782Z,21.17
2018-10-17T00:26:07.334Z,22.00
2018-10-17T00:31:10.939Z,20.70
2018-10-17T00:36:14.534Z,23.63
2018-10-17T00:41:18.164Z,21.63
2018-10-17T00:46:21.727Z,21.37
2018-10-17T00:51:25.362Z,20.70
2018-10-17T00:56:28.929Z,23.80
2018-10-17T01:01:32.431Z,22.13
2018-10-17T01:06:36.434Z,24.30
2018-10-17T01:11:40.441Z,22.70
2018-10-17T01:16:44.065Z,24.43
2018-10-17T01:21:48.230Z,23.17
2018-10-17T01:26:51.833Z,27.20
2018-10-17T01:31:55.377Z,29.17
2018-10-17T01:36:58.978Z,26.93
2018-10-17T01:42:02.510Z,28.37
2018-10-17T01:47:06.421Z,29.10
2018-10-17T01:52:09.945Z,28.43
2018-10-17T01:57:13.632Z,27.53
2018-10-17T02:02:17.193Z,28.07
2018-10-17T02:07:20.798Z,26.77
2018-10-17T02:12:24.306Z,28.13
2018-10-17T02:17:27.838Z,28.10
2018-10-17T02:22:31.368Z,27.57
2018-10-17T02:27:35.036Z,28.87
2018-10-17T02:32:38.557Z,26.57
2018-10-17T02:37:42.338Z,27.57
2018-10-17T02:42:45.886Z,27.67
2018-10-17T02:47:49.460Z,24.80
2018-10-17T02:52:53.069Z,24.87
2018-10-17T02:57:56.698Z,23.63
2018-10-17T03:03:00.245Z,23.30
2018-10-17T03:08:03.847Z,23.77
2018-10-17T03:13:07.363Z,23.13
2018-10-17T03:18:10.923Z,22.47
2018-10-17T03:23:14.664Z,22.53
2018-10-17T03:28:18.213Z,20.30
2018-10-17T03:33:21.770Z,21.40
2018-10-17T03:38:25.532Z,20.77
2018-10-17T03:43:29.142Z,22.87
2018-10-17T03:48:32.725Z,19.97
2018-10-17T03:53:36.301Z,20.43
2018-10-17T03:58:39.805Z,20.43
2018-10-17T04:03:43.424Z,22.03
2018-10-17T04:08:46.982Z,24.23
2018-10-17T04:13:50.459Z,24.50
2018-10-17T04:18:54.022Z,23.87
2018-10-17T04:23:57.649Z,22.27
2018-10-17T04:29:01.464Z,22.93
2018-10-17T04:34:05.092Z,22.60
2018-10-17T04:39:10.416Z,22.83
2018-10-17T04:44:14.005Z,23.13
2018-10-17T04:49:17.684Z,21.30
2018-10-17T04:54:21.177Z,25.03
2018-10-17T04:59:25.102Z,23.43
2018-10-17T05:04:28.743Z,24.10
2018-10-17T05:09:32.355Z,25.50
2018-10-17T05:14:35.991Z,25.30
2018-10-17T05:19:39.587Z,27.13
2018-10-17T05:24:43.182Z,26.47
2018-10-17T05:29:46.824Z,24.03
2018-10-17T05:34:50.362Z,25.70
2018-10-17T05:39:54.125Z,26.53
2018-10-17T05:44:57.651Z,25.07
2018-10-17T05:50:01.200Z,25.20
2018-10-17T05:55:04.948Z,28.03
2018-10-17T06:00:10.266Z,25.30
2018-10-17T06:05:13.995Z,25.03
2018-10-17T06:10:17.630Z,27.17
2018-10-17T06:15:21.322Z,24.37
2018-10-17T06:20:24.874Z,23.37
2018-10-17T06:25:28.416Z,24.53
2018-10-17T06:30:31.994Z,21.60
2018-10-17T06:35:35.575Z,25.47
2018-10-17T06:40:39.184Z,22.20
2018-10-17T06:45:42.775Z,23.63
2018-10-17T06:50:46.378Z,23.47
2018-10-17T06:55:49.963Z,25.33
2018-10-17T07:00:53.612Z,26.02
2018-10-17T07:05:57.209Z,23.87
2018-10-17T07:11:00.795Z,22.00
2018-10-17T07:16:04.457Z,22.33
2018-10-17T07:21:08.370Z,24.03
2018-10-17T07:26:11.943Z,24.30
2018-10-17T07:31:15.760Z,24.47
2018-10-17T07:36:19.300Z,22.10
2018-10-17T07:41:22.874Z,24.03
2018-10-17T07:46:26.815Z,26.00
2018-10-17T07:51:30.420Z,25.87
2018-10-17T07:56:34.012Z,25.17
2018-10-17T08:01:37.681Z,24.60
2018-10-17T08:06:41.869Z,23.27
2018-10-17T08:11:45.462Z,24.37
2018-10-17T08:16:49.092Z,25.13
2018-10-17T08:21:52.866Z,25.37
2018-10-17T08:26:56.411Z,23.13
2018-10-17T08:32:00.003Z,24.17
2018-10-17T08:37:03.956Z,23.23
2018-10-17T08:42:07.618Z,20.33
2018-10-17T08:47:11.195Z,21.37
2018-10-17T08:52:14.844Z,22.67
2018-10-17T08:57:27.490Z,19.67
2018-10-17T09:02:31.100Z,18.47
2018-10-17T09:07:34.668Z,19.87
2018-10-17T09:12:38.235Z,18.73
2018-10-17T09:17:41.823Z,20.67
2018-10-17T09:22:45.478Z,17.00
2018-10-17T09:27:48.977Z,17.13
2018-10-17T09:32:52.558Z,15.70
2018-10-17T09:37:56.118Z,15.57
2018-10-17T09:42:59.688Z,15.67
2018-10-17T09:48:03.333Z,16.57
2018-10-17T09:53:06.977Z,15.60
2018-10-17T09:58:10.561Z,14.33
2018-10-17T10:03:14.192Z,16.67
2018-10-17T10:08:17.724Z,15.20
2018-10-17T10:13:21.363Z,12.53
2018-10-17T10:18:25.275Z,10.13
2018-10-17T10:23:28.894Z,10.23
2018-10-17T10:28:32.411Z,9.17
2018-10-17T10:33:36.689Z,8.73
2018-10-17T10:38:40.289Z,7.13
2018-10-17T10:43:43.846Z,5.83
2018-10-17T10:48:47.402Z,6.87
2018-10-17T10:53:50.958Z,7.80
2018-10-17T10:58:54.563Z,8.20
2018-10-17T11:03:58.119Z,7.13
2018-10-17T11:09:01.757Z,10.53
2018-10-17T11:14:06.051Z,9.43
2018-10-17T11:19:09.522Z,8.13
2018-10-17T11:24:13.062Z,9.03
2018-10-17T11:29:16.808Z,7.47
2018-10-17T11:34:20.361Z,6.67
2018-10-17T11:39:23.942Z,7.67
2018-10-17T11:44:27.498Z,7.60
2018-10-17T11:49:31.094Z,6.90
2018-10-17T11:54:34.708Z,7.77
2018-10-17T11:59:38.297Z,7.13
2018-10-17T12:04:42.046Z,6.90
2018-10-17T12:09:45.481Z,8.57
2018-10-17T12:14:49.236Z,7.10
2018-10-17T12:19:52.852Z,7.80
2018-10-17T12:24:56.379Z,6.93
2018-10-17T12:29:59.988Z,8.30
2018-10-17T12:35:03.581Z,8.63
2018-10-17T12:40:08.728Z,7.23
2018-10-17T12:45:12.244Z,7.30
2018-10-17T12:50:15.843Z,7.17
2018-10-17T12:55:19.422Z,6.97
2018-10-17T13:00:34.028Z,6.40
2018-10-17T13:05:37.609Z,5.53
2018-10-17T13:10:41.278Z,8.03
2018-10-17T13:15:44.823Z,7.70
2018-10-17T13:20:48.470Z,6.57
2018-10-17T13:25:51.986Z,7.33
2018-10-17T13:30:56.948Z,7.33
2018-10-17T13:36:00.781Z,8.03
2018-10-17T13:41:04.472Z,6.03
2018-10-17T13:46:08.466Z,6.07
2018-10-17T13:51:12.083Z,8.17
2018-10-17T13:56:15.692Z,8.33
2018-10-17T14:01:19.328Z,7.97
2018-10-17T14:06:22.935Z,6.93
2018-10-17T14:11:26.544Z,6.60
2018-10-17T14:16:30.158Z,7.53
2018-10-17T14:21:33.709Z,9.03
2018-10-17T14:26:37.271Z,7.53
2018-10-17T14:31:40.811Z,7.47
2018-10-17T14:36:44.378Z,6.47
2018-10-17T14:41:47.970Z,7.60
2018-10-17T14:46:51.658Z,7.10
2018-10-17T14:51:55.227Z,7.40
2018-10-17T14:56:58.828Z,6.77
2018-10-17T15:02:02.402Z,6.83
2018-10-17T15:07:06.230Z,8.63
2018-10-17T15:12:10.009Z,8.20
2018-10-17T15:17:13.604Z,8.30
2018-10-17T15:22:17.165Z,8.17
2018-10-17T15:27:20.754Z,8.90
2018-10-17T15:32:24.423Z,9.80
2018-10-17T15:37:33.023Z,9.13
2018-10-17T15:42:37.044Z,8.47
2018-10-17T15:47:40.827Z,10.77
2018-10-17T15:52:44.481Z,8.83
2018-10-17T15:57:48.055Z,10.50
2018-10-17T16:02:51.679Z,10.30
2018-10-17T16:07:55.265Z,10.03
2018-10-17T16:12:58.834Z,10.47
2018-10-17T16:18:02.468Z,9.83
2018-10-17T16:23:06.248Z,9.83
2018-10-17T16:28:09.923Z,10.43
2018-10-17T16:33:13.708Z,11.50
2018-10-17T16:38:17.320Z,11.97
2018-10-17T16:43:20.843Z,12.40
2018-10-17T16:48:24.667Z,10.43
2018-10-17T16:53:28.520Z,12.50
2018-10-17T16:58:32.114Z,13.00
2018-10-17T17:03:35.610Z,12.53
2018-10-17T17:08:39.168Z,15.93
2018-10-17T17:13:42.714Z,12.90
2018-10-17T17:18:46.661Z,12.90
2018-10-17T17:23:50.218Z,12.20
2018-10-17T17:28:54.074Z,13.93
2018-10-17T17:33:57.640Z,15.57
2018-10-17T17:39:01.183Z,16.60
2018-10-17T17:44:04.917Z,15.93
2018-10-17T17:49:08.474Z,23.17
2018-10-17T17:54:12.027Z,18.67
2018-10-17T17:59:15.598Z,17.57
2018-10-17T18:04:19.259Z,19.37
2018-10-17T18:09:22.761Z,23.43
2018-10-17T18:14:26.768Z,21.10
2018-10-17T18:19:30.252Z,23.93
2018-10-17T18:24:33.836Z,23.20
2018-10-17T18:29:37.351Z,23.23
2018-10-17T18:34:41.212Z,22.13
2018-10-17T18:39:44.936Z,23.60
2018-10-17T18:44:48.470Z,24.77
2018-10-17T18:49:52.359Z,23.30
2018-10-17T18:54:56.090Z,25.27
2018-10-17T18:59:59.647Z,26.00
2018-10-17T19:05:04.202Z,24.83
2018-10-17T19:10:07.754Z,26.23
2018-10-17T19:15:11.424Z,27.17
2018-10-17T19:20:15.053Z,26.47
2018-10-17T19:25:18.604Z,36.20
2018-10-17T19:30:26.499Z,44.83
2018-10-17T19:35:30.167Z,31.40
2018-10-17T19:40:33.751Z,45.10
2018-10-17T19:45:37.296Z,55.43
2018-10-17T19:50:40.895Z,39.67
2018-10-17T19:55:44.551Z,34.13
2018-10-17T20:00:48.436Z,29.77
2018-10-17T20:05:51.978Z,29.67
2018-10-17T20:10:55.507Z,33.70
2018-10-17T20:15:59.021Z,28.73
2018-10-17T20:21:02.586Z,28.57
2018-10-17T20:26:06.334Z,30.27
2018-10-17T20:31:09.933Z,33.43
2018-10-17T20:36:13.530Z,33.53
2018-10-17T20:41:17.085Z,34.07
2018-10-17T20:46:20.769Z,31.57
2018-10-17T20:51:24.314Z,35.40
2018-10-17T20:56:27.871Z,34.50
2018-10-17T21:01:31.490Z,33.37
2018-10-17T21:06:35.017Z,36.57
2018-10-17T21:11:38.589Z,34.37
2018-10-17T21:16:42.931Z,35.37
2018-10-17T21:21:46.420Z,40.83
2018-10-17T21:26:50.036Z,37.13
2018-10-17T21:31:53.676Z,37.57
2018-10-17T21:37:00.180Z,37.70
2018-10-17T21:42:03.771Z,39.47
2018-10-17T21:47:08.140Z,38.70
2018-10-17T21:52:20.201Z,37.87
2018-10-17T21:57:29.208Z,40.53
2018-10-17T22:02:35.659Z,39.20
2018-10-17T22:07:44.021Z,40.97
2018-10-17T22:12:50.990Z,42.83
2018-10-17T22:17:54.539Z,41.43
2018-10-17T22:22:58.099Z,41.33
2018-10-17T22:28:10.306Z,44.27
2018-10-17T22:33:13.862Z,41.00
2018-10-17T22:38:17.436Z,43.10
2018-10-17T22:43:20.916Z,42.80
2018-10-17T22:48:24.709Z,47.47
2018-10-17T22:53:28.274Z,47.87
2018-10-17T22:58:31.810Z,47.63
2018-10-17T23:03:35.402Z,48.53
2018-10-17T23:08:38.929Z,53.17
2018-10-17T23:13:42.396Z,50.03
2018-10-17T23:18:45.930Z,47.67
2018-10-17T23:23:49.489Z,51.33
2018-10-17T23:28:53.039Z,50.17
2018-10-17T23:33:56.613Z,51.23
2018-10-17T23:39:00.162Z,51.03
2018-10-17T23:44:03.702Z,49.90
2018-10-17T23:49:07.291Z,52.87
2018-10-17T23:54:10.912Z,52.30
2018-10-17T23:59:14.563Z,56.30
